sensor_id;sensor_type;location;lat;lon;timestamp;pressure;altitude;pressure_sealevel;temperature;humidity
6853;BME280;3465;42.144;24.722;2023-03-13T00:00:56;144331.63;;;5.64;67.94
6853;BME280;3465;42.144;24.722;2023-03-13T00:03:25;144324.16;;;5.61;66.76
6853;BME280;3465;42.144;24.722;2023-03-13T00:05:56;144326.66;;;5.62;65.68
6853;BME280;3465;42.144;24.722;2023-03-13T00:08:24;144284.25;;;5.45;67.22
6853;BME280;3465;42.144;24.722;2023-03-13T00:10:51;144284.25;;;5.45;67.50
6853;BME280;3465;42.144;24.722;2023-03-13T00:13:26;144299.19;;;5.51;67.21
6853;BME280;3465;42.144;24.722;2023-03-13T00:16:07;144250.63;;;5.31;67.08
6853;BME280;3465;42.144;24.722;2023-03-13T00:18:33;144316.66;;;5.58;66.07
6853;BME280;3465;42.144;24.722;2023-03-13T00:21:03;144301.72;;;5.52;65.89
6853;BME280;3465;42.144;24.722;2023-03-13T00:23:30;144273.03;;;5.40;65.87
6853;BME280;3465;42.144;24.722;2023-03-13T00:26:18;144251.84;;;5.32;66.22
6853;BME280;3465;42.144;24.722;2023-03-13T00:28:45;144253.09;;;5.32;66.37
6853;BME280;3465;42.144;24.722;2023-03-13T00:33:39;144253.09;;;5.32;65.77
6853;BME280;3465;42.144;24.722;2023-03-13T00:36:08;144219.44;;;5.19;65.69
6853;BME280;3465;42.144;24.722;2023-03-13T00:38:34;144215.69;;;5.17;66.41
6853;BME280;3465;42.144;24.722;2023-03-13T00:43:30;144208.22;;;5.14;68.19
6853;BME280;3465;42.144;24.722;2023-03-13T00:45:55;144202.03;;;5.12;68.79
6853;BME280;3465;42.144;24.722;2023-03-13T00:48:21;144199.50;;;5.11;69.51
6853;BME280;3465;42.144;24.722;2023-03-13T00:50:48;144194.53;;;5.09;69.84
6853;BME280;3465;42.144;24.722;2023-03-13T00:53:13;144140.94;;;4.87;69.78
6853;BME280;3465;42.144;24.722;2023-03-13T00:55:53;144164.63;;;4.97;70.24
6853;BME280;3465;42.144;24.722;2023-03-13T00:58:19;144145.94;;;4.89;71.40
6853;BME280;3465;42.144;24.722;2023-03-13T01:00:44;144154.69;;;4.93;71.36
6853;BME280;3465;42.144;24.722;2023-03-13T01:03:10;144150.94;;;4.91;72.03
6853;BME280;3465;42.144;24.722;2023-03-13T01:05:36;144138.47;;;4.86;71.99
6853;BME280;3465;42.144;24.722;2023-03-13T01:08:01;144126.00;;;4.81;72.00
6853;BME280;3465;42.144;24.722;2023-03-13T01:10:26;144127.28;;;4.82;71.71
6853;BME280;3465;42.144;24.722;2023-03-13T01:12:52;144119.75;;;4.79;71.84
6853;BME280;3465;42.144;24.722;2023-03-13T01:15:17;144112.28;;;4.76;71.84
6853;BME280;3465;42.144;24.722;2023-03-13T01:17:44;144101.09;;;4.71;71.82
6853;BME280;3465;42.144;24.722;2023-03-13T01:20:10;144078.69;;;4.62;72.23
6853;BME280;3465;42.144;24.722;2023-03-13T01:22:36;144035.09;;;4.45;72.38
6853;BME280;3465;42.144;24.722;2023-03-13T01:25:01;144074.94;;;4.61;72.87
6853;BME280;3465;42.144;24.722;2023-03-13T01:27:27;144003.94;;;4.32;73.19
6853;BME280;3465;42.144;24.722;2023-03-13T01:29:53;144028.84;;;4.42;73.95
6853;BME280;3465;42.144;24.722;2023-03-13T01:32:18;144000.19;;;4.30;74.42
6853;BME280;3465;42.144;24.722;2023-03-13T01:34:44;144008.91;;;4.34;74.24
6853;BME280;3465;42.144;24.722;2023-03-13T01:37:09;143985.25;;;4.24;74.08
6853;BME280;3465;42.144;24.722;2023-03-13T01:39:34;144012.66;;;4.35;74.26
6853;BME280;3465;42.144;24.722;2023-03-13T01:42:02;144002.72;;;4.31;74.11
6853;BME280;3465;42.144;24.722;2023-03-13T01:44:27;143966.59;;;4.17;74.32
6853;BME280;3465;42.144;24.722;2023-03-13T01:46:53;143940.44;;;4.06;75.88
6853;BME280;3465;42.144;24.722;2023-03-13T01:49:24;143925.50;;;4.00;76.50
6853;BME280;3465;42.144;24.722;2023-03-13T01:51:54;143862.03;;;3.75;76.95
6853;BME280;3465;42.144;24.722;2023-03-13T01:54:26;143788.66;;;3.45;77.73
6853;BME280;3465;42.144;24.722;2023-03-13T01:57:04;143829.69;;;3.62;78.75
6853;BME280;3465;42.144;24.722;2023-03-13T01:59:49;143848.38;;;3.69;78.65
6853;BME280;3465;42.144;24.722;2023-03-13T02:02:17;143854.56;;;3.72;78.88
6853;BME280;3465;42.144;24.722;2023-03-13T02:04:47;143844.59;;;3.68;77.61
6853;BME280;3465;42.144;24.722;2023-03-13T02:07:17;143894.41;;;3.88;76.72
6853;BME280;3465;42.144;24.722;2023-03-13T02:09:46;143878.22;;;3.81;77.07
6853;BME280;3465;42.144;24.722;2023-03-13T02:12:18;143880.69;;;3.82;76.92
6853;BME280;3465;42.144;24.722;2023-03-13T02:14:49;143885.69;;;3.84;76.40
6853;BME280;3465;42.144;24.722;2023-03-13T02:17:14;143878.22;;;3.81;76.56
6853;BME280;3465;42.144;24.722;2023-03-13T02:19:44;143860.78;;;3.74;77.06
6853;BME280;3465;42.144;24.722;2023-03-13T02:22:15;143863.28;;;3.75;78.20
6853;BME280;3465;42.144;24.722;2023-03-13T02:27:29;143828.47;;;3.61;80.50
6853;BME280;3465;42.144;24.722;2023-03-13T02:29:56;143796.09;;;3.48;82.43
6853;BME280;3465;42.144;24.722;2023-03-13T02:32:22;143771.22;;;3.38;82.82
6853;BME280;3465;42.144;24.722;2023-03-13T02:34:51;143783.66;;;3.43;82.69
6853;BME280;3465;42.144;24.722;2023-03-13T02:37:19;143766.22;;;3.36;81.94
6853;BME280;3465;42.144;24.722;2023-03-13T02:39:47;143757.50;;;3.33;82.44
6853;BME280;3465;42.144;24.722;2023-03-13T02:42:17;143752.56;;;3.31;82.25
6853;BME280;3465;42.144;24.722;2023-03-13T02:44:45;143748.84;;;3.29;82.24
6853;BME280;3465;42.144;24.722;2023-03-13T02:47:11;143712.75;;;3.15;82.71
6853;BME280;3465;42.144;24.722;2023-03-13T02:49:37;143682.88;;;3.03;83.69
6853;BME280;3465;42.144;24.722;2023-03-13T02:52:11;143710.25;;;3.14;84.18
6853;BME280;3465;42.144;24.722;2023-03-13T02:54:38;143687.88;;;3.05;84.87
6853;BME280;3465;42.144;24.722;2023-03-13T02:57:05;143690.34;;;3.06;85.22
6853;BME280;3465;42.144;24.722;2023-03-13T02:59:31;143621.94;;;2.78;82.93
6853;BME280;3465;42.144;24.722;2023-03-13T03:01:57;143672.97;;;2.99;82.29
6853;BME280;3465;42.144;24.722;2023-03-13T03:04:25;143617.00;;;2.76;83.15
6853;BME280;3465;42.144;24.722;2023-03-13T03:06:51;143580.94;;;2.61;83.67
6853;BME280;3465;42.144;24.722;2023-03-13T03:09:18;143597.09;;;2.68;83.94
6853;BME280;3465;42.144;24.722;2023-03-13T03:11:44;143578.44;;;2.60;83.94
6853;BME280;3465;42.144;24.722;2023-03-13T03:14:10;143549.88;;;2.49;83.85
6853;BME280;3465;42.144;24.722;2023-03-13T03:16:36;143605.78;;;2.71;83.03
6853;BME280;3465;42.144;24.722;2023-03-13T03:19:02;143579.69;;;2.61;82.73
6853;BME280;3465;42.144;24.722;2023-03-13T03:21:28;143597.09;;;2.68;83.04
6853;BME280;3465;42.144;24.722;2023-03-13T03:23:53;143538.66;;;2.44;83.64
6853;BME280;3465;42.144;24.722;2023-03-13T03:26:18;143566.00;;;2.55;84.43
6853;BME280;3465;42.144;24.722;2023-03-13T03:28:44;143534.94;;;2.43;85.31
6853;BME280;3465;42.144;24.722;2023-03-13T03:31:11;143487.72;;;2.24;84.98
6853;BME280;3465;42.144;24.722;2023-03-13T03:33:38;143512.56;;;2.34;85.27
6853;BME280;3465;42.144;24.722;2023-03-13T03:36:08;143520.03;;;2.37;84.61
6853;BME280;3465;42.144;24.722;2023-03-13T03:38:35;143482.72;;;2.22;84.85
6853;BME280;3465;42.144;24.722;2023-03-13T03:41:01;143445.47;;;2.07;84.35
6853;BME280;3465;42.144;24.722;2023-03-13T03:43:27;143472.81;;;2.18;84.66
6853;BME280;3465;42.144;24.722;2023-03-13T03:45:52;143472.81;;;2.18;84.51
6853;BME280;3465;42.144;24.722;2023-03-13T03:48:17;143465.34;;;2.15;84.65
6853;BME280;3465;42.144;24.722;2023-03-13T03:50:43;143462.84;;;2.14;84.81
6853;BME280;3465;42.144;24.722;2023-03-13T03:53:08;143438.03;;;2.04;85.35
6853;BME280;3465;42.144;24.722;2023-03-13T03:55:34;143420.63;;;1.97;85.97
6853;BME280;3465;42.144;24.722;2023-03-13T03:58:00;143405.72;;;1.91;86.03
6853;BME280;3465;42.144;24.722;2023-03-13T04:00:26;143377.13;;;1.79;86.43
6853;BME280;3465;42.144;24.722;2023-03-13T04:02:52;143375.88;;;1.79;87.07
6853;BME280;3465;42.144;24.722;2023-03-13T04:05:18;143319.97;;;1.56;87.76
6853;BME280;3465;42.144;24.722;2023-03-13T04:07:44;143361.00;;;1.73;88.36
6853;BME280;3465;42.144;24.722;2023-03-13T04:10:09;143372.16;;;1.77;88.27
6853;BME280;3465;42.144;24.722;2023-03-13T04:12:35;143305.09;;;1.50;88.44
6853;BME280;3465;42.144;24.722;2023-03-13T04:15:00;143358.53;;;1.72;88.75
6853;BME280;3465;42.144;24.722;2023-03-13T04:17:26;143303.84;;;1.49;88.72
6853;BME280;3465;42.144;24.722;2023-03-13T04:19:51;143353.53;;;1.70;88.78
6853;BME280;3465;42.144;24.722;2023-03-13T04:22:17;143326.22;;;1.59;89.37
6853;BME280;3465;42.144;24.722;2023-03-13T04:24:42;143297.66;;;1.47;89.57
6853;BME280;3465;42.144;24.722;2023-03-13T04:27:08;143351.06;;;1.69;89.92
6853;BME280;3465;42.144;24.722;2023-03-13T04:29:33;143348.56;;;1.68;90.38
6853;BME280;3465;42.144;24.722;2023-03-13T04:31:59;143356.00;;;1.71;90.59
6853;BME280;3465;42.144;24.722;2023-03-13T04:34:25;143377.13;;;1.79;89.15
6853;BME280;3465;42.144;24.722;2023-03-13T04:36:50;143356.00;;;1.71;89.72
6853;BME280;3465;42.144;24.722;2023-03-13T04:39:16;143336.13;;;1.63;89.92
6853;BME280;3465;42.144;24.722;2023-03-13T04:41:41;143306.34;;;1.51;89.92
6853;BME280;3465;42.144;24.722;2023-03-13T04:44:06;143332.41;;;1.61;89.45
6853;BME280;3465;42.144;24.722;2023-03-13T04:46:32;143228.09;;;1.19;89.76
6853;BME280;3465;42.144;24.722;2023-03-13T04:48:57;143327.44;;;1.59;89.51
6853;BME280;3465;42.144;24.722;2023-03-13T04:51:23;143331.19;;;1.61;89.21
6853;BME280;3465;42.144;24.722;2023-03-13T04:53:49;143301.38;;;1.48;90.81
6853;BME280;3465;42.144;24.722;2023-03-13T04:56:21;143326.22;;;1.59;90.72
6853;BME280;3465;42.144;24.722;2023-03-13T04:58:47;143328.69;;;1.60;90.67
6853;BME280;3465;42.144;24.722;2023-03-13T05:01:12;143348.56;;;1.68;90.64
6853;BME280;3465;42.144;24.722;2023-03-13T05:03:38;143358.53;;;1.72;90.26
6853;BME280;3465;42.144;24.722;2023-03-13T05:06:03;143296.41;;;1.46;90.34
6853;BME280;3465;42.144;24.722;2023-03-13T05:08:29;143334.91;;;1.62;90.73
6853;BME280;3465;42.144;24.722;2023-03-13T05:10:54;143349.81;;;1.68;90.32
6853;BME280;3465;42.144;24.722;2023-03-13T05:13:20;143361.00;;;1.73;91.47
6853;BME280;3465;42.144;24.722;2023-03-13T05:15:45;143595.84;;;2.67;90.44
6853;BME280;3465;42.144;24.722;2023-03-13T05:18:10;143921.78;;;3.99;83.62
6853;BME280;3465;42.144;24.722;2023-03-13T05:20:37;144036.31;;;4.45;75.83
6853;BME280;3465;42.144;24.722;2023-03-13T05:23:02;144423.94;;;6.01;69.63
6853;BME280;3465;42.144;24.722;2023-03-13T05:25:27;144654.75;;;6.94;63.89
6853;BME280;3465;42.144;24.722;2023-03-13T05:27:53;144772.13;;;7.41;61.46
6853;BME280;3465;42.144;24.722;2023-03-13T05:30:18;145015.78;;;8.39;58.31
6853;BME280;3465;42.144;24.722;2023-03-13T05:32:44;145183.31;;;9.06;54.78
6853;BME280;3465;42.144;24.722;2023-03-13T05:35:09;145438.59;;;10.08;51.02
6853;BME280;3465;42.144;24.722;2023-03-13T05:37:35;145573.84;;;10.63;48.70
6853;BME280;3465;42.144;24.722;2023-03-13T05:40:00;145705.38;;;11.15;46.71
6853;BME280;3465;42.144;24.722;2023-03-13T05:42:26;145566.34;;;10.60;47.57
6853;BME280;3465;42.144;24.722;2023-03-13T05:44:51;145686.59;;;11.08;46.37
6853;BME280;3465;42.144;24.722;2023-03-13T05:47:17;145957.34;;;12.16;44.52
6853;BME280;3465;42.144;24.722;2023-03-13T05:49:43;146052.66;;;12.54;42.96
6853;BME280;3465;42.144;24.722;2023-03-13T05:52:08;146159.34;;;12.97;42.40
6853;BME280;3465;42.144;24.722;2023-03-13T05:54:34;146180.69;;;13.06;41.85
6853;BME280;3465;42.144;24.722;2023-03-13T05:56:59;146284.88;;;13.47;40.32
6853;BME280;3465;42.144;24.722;2023-03-13T05:59:25;146450.66;;;14.13;39.37
6853;BME280;3465;42.144;24.722;2023-03-13T06:01:50;146402.94;;;13.94;39.38
6853;BME280;3465;42.144;24.722;2023-03-13T06:04:16;146456.97;;;14.16;39.18
6853;BME280;3465;42.144;24.722;2023-03-13T06:06:41;146386.59;;;13.88;38.88
6853;BME280;3465;42.144;24.722;2023-03-13T06:09:06;146583.91;;;14.67;37.72
6853;BME280;3465;42.144;24.722;2023-03-13T06:11:32;146656.78;;;14.96;37.13
6853;BME280;3465;42.144;24.722;2023-03-13T06:13:57;146788.84;;;15.48;36.23
6853;BME280;3465;42.144;24.722;2023-03-13T06:16:23;146952.41;;;16.14;35.23
6853;BME280;3465;42.144;24.722;2023-03-13T06:18:48;147040.53;;;16.49;34.10
6853;BME280;3465;42.144;24.722;2023-03-13T06:21:14;146915.94;;;15.99;34.60
6853;BME280;3465;42.144;24.722;2023-03-13T06:23:42;146997.69;;;16.32;34.65
6853;BME280;3465;42.144;24.722;2023-03-13T06:26:07;147056.91;;;16.55;33.94
6853;BME280;3465;42.144;24.722;2023-03-13T06:28:33;146925.97;;;16.03;34.64
6853;BME280;3465;42.144;24.722;2023-03-13T06:31:07;147039.28;;;16.48;34.53
6853;BME280;3465;42.144;24.722;2023-03-13T06:33:33;147152.56;;;16.93;33.54
6853;BME280;3465;42.144;24.722;2023-03-13T06:36:02;147228.13;;;17.24;32.84
6853;BME280;3465;42.144;24.722;2023-03-13T06:38:28;147341.53;;;17.69;32.11
6853;BME280;3465;42.144;24.722;2023-03-13T06:40:54;147268.44;;;17.40;32.54
6853;BME280;3465;42.144;24.722;2023-03-13T06:43:19;147350.38;;;17.72;32.25
6853;BME280;3465;42.144;24.722;2023-03-13T06:45:45;147437.28;;;18.07;32.10
6853;BME280;3465;42.144;24.722;2023-03-13T06:48:10;147446.13;;;18.10;31.65
6853;BME280;3465;42.144;24.722;2023-03-13T06:50:40;147576.03;;;18.62;31.00
6853;BME280;3465;42.144;24.722;2023-03-13T06:53:06;147748.84;;;19.31;30.18
6853;BME280;3465;42.144;24.722;2023-03-13T06:55:32;147777.88;;;19.42;30.05
6853;BME280;3465;42.144;24.722;2023-03-13T06:57:58;147733.66;;;19.25;29.34
6853;BME280;3465;42.144;24.722;2023-03-13T07:00:23;147507.91;;;18.35;30.22
6853;BME280;3465;42.144;24.722;2023-03-13T07:02:49;147581.09;;;18.64;30.00
6853;BME280;3465;42.144;24.722;2023-03-13T07:05:15;147507.91;;;18.35;30.27
6853;BME280;3465;42.144;24.722;2023-03-13T07:07:41;147814.47;;;19.57;29.25
6853;BME280;3465;42.144;24.722;2023-03-13T07:10:08;147791.72;;;19.48;29.39
6853;BME280;3465;42.144;24.722;2023-03-13T07:12:35;147847.28;;;19.70;28.77
6853;BME280;3465;42.144;24.722;2023-03-13T07:15:00;148011.41;;;20.35;27.94
6853;BME280;3465;42.144;24.722;2023-03-13T07:17:26;147528.13;;;18.43;29.95
6853;BME280;3465;42.144;24.722;2023-03-13T07:19:51;147577.31;;;18.63;30.50
6853;BME280;3465;42.144;24.722;2023-03-13T07:22:16;147774.09;;;19.41;29.38
6853;BME280;3465;42.144;24.722;2023-03-13T07:24:42;147857.34;;;19.74;28.66
6853;BME280;3465;42.144;24.722;2023-03-13T07:27:07;147964.69;;;20.17;28.19
6853;BME280;3465;42.144;24.722;2023-03-13T07:29:33;148344.97;;;21.68;27.37
6853;BME280;3465;42.144;24.722;2023-03-13T07:31:58;148597.91;;;22.68;25.86
6853;BME280;3465;42.144;24.722;2023-03-13T07:34:24;148687.72;;;23.04;25.27
6853;BME280;3465;42.144;24.722;2023-03-13T07:36:49;148770.03;;;23.36;24.73
6853;BME280;3465;42.144;24.722;2023-03-13T07:39:14;148854.84;;;23.70;24.69
6853;BME280;3465;42.144;24.722;2023-03-13T07:41:40;148721.84;;;23.17;24.94
6853;BME280;3465;42.144;24.722;2023-03-13T07:44:06;148639.66;;;22.85;25.05
6853;BME280;3465;42.144;24.722;2023-03-13T07:46:31;148699.09;;;23.08;25.09
6853;BME280;3465;42.144;24.722;2023-03-13T07:48:57;148891.53;;;23.84;24.32
6853;BME280;3465;42.144;24.722;2023-03-13T07:51:24;148927.03;;;23.98;23.82
6853;BME280;3465;42.144;24.722;2023-03-13T07:53:50;149113.25;;;24.72;23.71
6853;BME280;3465;42.144;24.722;2023-03-13T07:56:18;149193.03;;;25.04;22.82
6853;BME280;3465;42.144;24.722;2023-03-13T07:58:44;149238.66;;;25.22;22.82
6853;BME280;3465;42.144;24.722;2023-03-13T08:01:24;149033.41;;;24.41;23.32
6853;BME280;3465;42.144;24.722;2023-03-13T08:03:50;149113.25;;;24.72;23.82
6853;BME280;3465;42.144;24.722;2023-03-13T08:06:21;149046.03;;;24.46;24.04
6853;BME280;3465;42.144;24.722;2023-03-13T08:08:51;149168.97;;;24.94;23.56
6853;BME280;3465;42.144;24.722;2023-03-13T08:11:19;149172.78;;;24.96;22.65
6853;BME280;3465;42.144;24.722;2023-03-13T08:13:44;149092.94;;;24.64;23.87
6853;BME280;3465;42.144;24.722;2023-03-13T08:16:21;149256.44;;;25.29;23.20
6853;BME280;3465;42.144;24.722;2023-03-13T08:18:49;149078.97;;;24.59;23.81
6853;BME280;3465;42.144;24.722;2023-03-13T08:21:18;148992.88;;;24.25;23.59
6853;BME280;3465;42.144;24.722;2023-03-13T08:23:45;149127.16;;;24.78;23.34
6853;BME280;3465;42.144;24.722;2023-03-13T08:26:16;149194.31;;;25.04;22.50
6853;BME280;3465;42.144;24.722;2023-03-13T08:28:44;149208.22;;;25.10;22.58
6853;BME280;3465;42.144;24.722;2023-03-13T08:33:37;149223.47;;;25.16;22.58
6853;BME280;3465;42.144;24.722;2023-03-13T08:38:39;149070.09;;;24.55;22.77
6853;BME280;3465;42.144;24.722;2023-03-13T08:41:09;149113.25;;;24.72;22.56
6853;BME280;3465;42.144;24.722;2023-03-13T08:43:34;149029.56;;;24.39;22.74
6853;BME280;3465;42.144;24.722;2023-03-13T08:46:00;149151.22;;;24.87;23.04
6853;BME280;3465;42.144;24.722;2023-03-13T08:48:25;149035.94;;;24.42;22.98
6853;BME280;3465;42.144;24.722;2023-03-13T08:51:04;149086.56;;;24.62;22.49
6853;BME280;3465;42.144;24.722;2023-03-13T08:53:30;149208.22;;;25.10;22.20
6853;BME280;3465;42.144;24.722;2023-03-13T08:55:56;149413.66;;;25.91;22.22
6853;BME280;3465;42.144;24.722;2023-03-13T08:58:22;149070.09;;;24.55;23.05
6853;BME280;3465;42.144;24.722;2023-03-13T09:00:48;149175.34;;;24.97;22.43
6853;BME280;3465;42.144;24.722;2023-03-13T09:03:13;149090.38;;;24.63;22.73
6853;BME280;3465;42.144;24.722;2023-03-13T09:05:39;149179.13;;;24.98;22.24
6853;BME280;3465;42.144;24.722;2023-03-13T09:08:04;149262.75;;;25.31;21.65
6853;BME280;3465;42.144;24.722;2023-03-13T09:10:33;149477.09;;;26.16;21.84
6853;BME280;3465;42.144;24.722;2023-03-13T09:12:59;149332.50;;;25.59;21.99
6853;BME280;3465;42.144;24.722;2023-03-13T09:15:25;149397.16;;;25.85;21.02
6853;BME280;3465;42.144;24.722;2023-03-13T09:17:50;148333.53;;;21.63;24.67
6853;BME280;3465;42.144;24.722;2023-03-13T09:20:16;148216.03;;;21.16;26.18
6853;BME280;3465;42.144;24.722;2023-03-13T09:22:43;148633.31;;;22.82;25.05
6853;BME280;3465;42.144;24.722;2023-03-13T09:25:09;149051.09;;;24.48;23.12
6853;BME280;3465;42.144;24.722;2023-03-13T09:27:34;149086.56;;;24.62;22.38
6853;BME280;3465;42.144;24.722;2023-03-13T09:30:00;149214.59;;;25.12;21.38
6853;BME280;3465;42.144;24.722;2023-03-13T09:32:25;149253.88;;;25.28;21.29
6853;BME280;3465;42.144;24.722;2023-03-13T09:34:50;149001.72;;;24.28;21.99
6853;BME280;3465;42.144;24.722;2023-03-13T09:37:16;148719.34;;;23.16;23.32
6853;BME280;3465;42.144;24.722;2023-03-13T09:39:41;148270.38;;;21.38;23.57
6853;BME280;3465;42.144;24.722;2023-03-13T09:42:19;148243.88;;;21.27;24.54
6853;BME280;3465;42.144;24.722;2023-03-13T09:45:16;148484.03;;;22.23;23.78
6853;BME280;3465;42.144;24.722;2023-03-13T09:47:43;148648.53;;;22.88;23.20
6853;BME280;3465;42.144;24.722;2023-03-13T09:50:14;148896.56;;;23.86;23.00
6853;BME280;3465;42.144;24.722;2023-03-13T09:52:42;148938.41;;;24.03;22.78
6853;BME280;3465;42.144;24.722;2023-03-13T09:55:18;148982.72;;;24.21;22.05
6853;BME280;3465;42.144;24.722;2023-03-13T09:58:03;148527.06;;;22.40;22.60
6853;BME280;3465;42.144;24.722;2023-03-13T10:00:38;148192.03;;;21.07;23.76
6853;BME280;3465;42.144;24.722;2023-03-13T10:05:38;147881.31;;;19.83;24.02
6853;BME280;3465;42.144;24.722;2023-03-13T10:08:13;147832.09;;;19.64;24.16
6853;BME280;3465;42.144;24.722;2023-03-13T10:13:21;148050.53;;;20.51;23.94
6853;BME280;3465;42.144;24.722;2023-03-13T10:15:53;148256.47;;;21.33;23.86
6853;BME280;3465;42.144;24.722;2023-03-13T10:18:21;148212.25;;;21.15;23.16
6853;BME280;3465;42.144;24.722;2023-03-13T10:20:50;148251.44;;;21.31;23.76
6853;BME280;3465;42.144;24.722;2023-03-13T10:26:03;148277.94;;;21.41;22.64
6853;BME280;3465;42.144;24.722;2023-03-13T10:28:29;148356.31;;;21.72;22.56
6853;BME280;3465;42.144;24.722;2023-03-13T10:33:49;148615.63;;;22.75;20.48
6853;BME280;3465;42.144;24.722;2023-03-13T10:36:14;148749.78;;;23.28;19.45
6853;BME280;3465;42.144;24.722;2023-03-13T10:41:24;148457.50;;;22.12;19.78
6853;BME280;3465;42.144;24.722;2023-03-13T10:43:52;148137.69;;;20.85;20.88
6853;BME280;3465;42.144;24.722;2023-03-13T10:46:26;147800.56;;;19.51;21.43
6853;BME280;3465;42.144;24.722;2023-03-13T10:48:55;147533.13;;;18.45;21.70
6853;BME280;3465;42.144;24.722;2023-03-13T10:51:24;147644.09;;;18.89;22.12
6853;BME280;3465;42.144;24.722;2023-03-13T10:53:55;147877.53;;;19.82;21.36
6853;BME280;3465;42.144;24.722;2023-03-13T10:56:28;147948.25;;;20.10;21.24
6853;BME280;3465;42.144;24.722;2023-03-13T10:58:54;147632.78;;;18.85;22.05
6853;BME280;3465;42.144;24.722;2023-03-13T11:01:25;147936.84;;;20.06;21.63
6853;BME280;3465;42.144;24.722;2023-03-13T11:03:55;148307.03;;;21.53;21.03
6853;BME280;3465;42.144;24.722;2023-03-13T11:11:28;148724.41;;;23.18;18.92
6853;BME280;3465;42.144;24.722;2023-03-13T11:14:07;148630.78;;;22.81;19.18
6853;BME280;3465;42.144;24.722;2023-03-13T11:16:38;148849.75;;;23.68;19.21
6853;BME280;3465;42.144;24.722;2023-03-13T11:27:22;147206.69;;;17.15;23.12
6853;BME280;3465;42.144;24.722;2023-03-13T11:33:11;147476.41;;;18.22;22.43
6853;BME280;3465;42.144;24.722;2023-03-13T11:36:00;147434.78;;;18.06;21.79
6853;BME280;3465;42.144;24.722;2023-03-13T11:38:27;147467.56;;;18.19;21.63
6853;BME280;3465;42.144;24.722;2023-03-13T11:41:12;147398.25;;;17.91;21.91
6853;BME280;3465;42.144;24.722;2023-03-13T11:55:18;147928.03;;;20.02;20.41
6853;BME280;3465;42.144;24.722;2023-03-13T12:03:33;148068.22;;;20.58;20.15
6853;BME280;3465;42.144;24.722;2023-03-13T12:06:01;148082.13;;;20.63;20.11
6853;BME280;3465;42.144;24.722;2023-03-13T12:08:54;147968.50;;;20.18;20.23
6853;BME280;3465;42.144;24.722;2023-03-13T12:11:31;147853.56;;;19.72;20.32
6853;BME280;3465;42.144;24.722;2023-03-13T12:14:30;147791.72;;;19.48;19.94
6853;BME280;3465;42.144;24.722;2023-03-13T12:17:24;148127.56;;;20.81;19.10
6853;BME280;3465;42.144;24.722;2023-03-13T12:20:01;147943.19;;;20.08;19.87
6853;BME280;3465;42.144;24.722;2023-03-13T12:22:47;147993.69;;;20.28;20.45
6853;BME280;3465;42.144;24.722;2023-03-13T12:25:24;147892.66;;;19.88;21.01
6853;BME280;3465;42.144;24.722;2023-03-13T12:27:52;147789.22;;;19.47;20.97
6853;BME280;3465;42.144;24.722;2023-03-13T12:33:23;148111.13;;;20.75;20.79
6853;BME280;3465;42.144;24.722;2023-03-13T12:36:17;148240.03;;;21.26;19.87
6853;BME280;3465;42.144;24.722;2023-03-13T12:38:49;148085.91;;;20.65;20.32
6853;BME280;3465;42.144;24.722;2023-03-13T12:41:23;148257.72;;;21.33;20.11
6853;BME280;3465;42.144;24.722;2023-03-13T12:43:52;148257.72;;;21.33;19.55
6853;BME280;3465;42.144;24.722;2023-03-13T12:54:45;147606.25;;;18.74;21.01
6853;BME280;3465;42.144;24.722;2023-03-13T13:00:15;147593.66;;;18.69;21.83
6853;BME280;3465;42.144;24.722;2023-03-13T13:02:43;147731.13;;;19.24;20.67
6853;BME280;3465;42.144;24.722;2023-03-13T13:05:18;147652.94;;;18.93;20.75
6853;BME280;3465;42.144;24.722;2023-03-13T13:07:53;147656.72;;;18.94;21.36
6853;BME280;3465;42.144;24.722;2023-03-13T13:10:24;147656.72;;;18.94;21.13
6853;BME280;3465;42.144;24.722;2023-03-13T13:15:45;147565.91;;;18.58;21.95
6853;BME280;3465;42.144;24.722;2023-03-13T13:18:29;147467.56;;;18.19;22.25
6853;BME280;3465;42.144;24.722;2023-03-13T13:23:43;147403.28;;;17.93;22.98
6853;BME280;3465;42.144;24.722;2023-03-13T13:36:56;147137.47;;;16.87;24.31
6853;BME280;3465;42.144;24.722;2023-03-13T13:39:45;147156.34;;;16.95;24.06
6853;BME280;3465;42.144;24.722;2023-03-13T13:45:29;147230.63;;;17.25;23.68
6853;BME280;3465;42.144;24.722;2023-03-13T13:48:31;147224.34;;;17.22;23.49
6853;BME280;3465;42.144;24.722;2023-03-13T13:56:27;147088.38;;;16.68;23.80
6853;BME280;3465;42.144;24.722;2023-03-13T13:59:44;146952.41;;;16.14;23.25
6853;BME280;3465;42.144;24.722;2023-03-13T14:01:44;146983.88;;;16.26;24.52
6853;BME280;3465;42.144;24.722;2023-03-13T14:04:15;147045.53;;;16.51;24.69
6853;BME280;3465;42.144;24.722;2023-03-13T14:06:44;147014.03;;;16.38;24.80
6853;BME280;3465;42.144;24.722;2023-03-13T14:09:33;146917.16;;;16.00;24.69
6853;BME280;3465;42.144;24.722;2023-03-13T14:12:00;146899.56;;;15.93;25.04
6853;BME280;3465;42.144;24.722;2023-03-13T14:14:25;146973.78;;;16.22;24.92
6853;BME280;3465;42.144;24.722;2023-03-13T14:16:53;146949.88;;;16.13;24.64
6853;BME280;3465;42.144;24.722;2023-03-13T14:19:29;146920.91;;;16.01;24.35
6853;BME280;3465;42.144;24.722;2023-03-13T14:22:04;147027.91;;;16.44;24.42
6853;BME280;3465;42.144;24.722;2023-03-13T14:24:30;147056.91;;;16.55;23.67
6853;BME280;3465;42.144;24.722;2023-03-13T14:26:55;147011.53;;;16.37;24.17
6853;BME280;3465;42.144;24.722;2023-03-13T14:29:21;147022.88;;;16.42;23.81
6853;BME280;3465;42.144;24.722;2023-03-13T14:31:55;147050.59;;;16.53;23.48
6853;BME280;3465;42.144;24.722;2023-03-13T14:34:20;146839.19;;;15.68;24.65
6853;BME280;3465;42.144;24.722;2023-03-13T14:42:02;146837.91;;;15.68;24.88
6853;BME280;3465;42.144;24.722;2023-03-13T14:44:30;146792.63;;;15.50;25.24
6853;BME280;3465;42.144;24.722;2023-03-13T14:47:03;146792.63;;;15.50;25.22
6853;BME280;3465;42.144;24.722;2023-03-13T14:49:29;146735.97;;;15.27;25.43
6853;BME280;3465;42.144;24.722;2023-03-13T14:54:36;146772.50;;;15.42;25.68
6853;BME280;3465;42.144;24.722;2023-03-13T14:59:34;146752.34;;;15.34;25.71
6853;BME280;3465;42.144;24.722;2023-03-13T15:10:02;146718.41;;;15.20;26.20